createdAt,value
2022-12-15T00:02:19.902Z,48.80
2022-12-15T00:05:05.656Z,51.10
2022-12-15T00:07:50.959Z,51.88
2022-12-15T00:10:36.337Z,50.50
2022-12-15T00:13:22.134Z,46.95
2022-12-15T00:16:07.410Z,51.50
2022-12-15T00:18:53.830Z,51.47
2022-12-15T00:21:39.234Z,53.65
2022-12-15T00:24:25.081Z,55.50
2022-12-15T00:27:10.452Z,52.88
2022-12-15T00:29:55.743Z,52.83
2022-12-15T00:32:41.733Z,48.70
2022-12-15T00:35:28.411Z,59.80
2022-12-15T00:38:13.761Z,61.97
2022-12-15T00:40:41.488Z,66.05
2022-12-15T00:43:12.130Z,69.43
2022-12-15T00:45:58.030Z,68.10
2022-12-15T00:48:25.709Z,70.28
2022-12-15T00:50:53.764Z,70.35
2022-12-15T00:53:40.239Z,72.60
2022-12-15T00:56:26.037Z,68.32
2022-12-15T00:59:11.225Z,69.38
2022-12-15T01:01:56.829Z,67.15
2022-12-15T01:04:42.375Z,71.32
2022-12-15T01:07:28.852Z,76.93
2022-12-15T01:10:14.301Z,72.43
2022-12-15T01:12:59.599Z,70.13
2022-12-15T01:15:44.913Z,68.75
2022-12-15T01:18:30.248Z,70.85
2022-12-15T01:20:58.761Z,74.47
2022-12-15T01:23:28.380Z,78.45
2022-12-15T01:25:56.366Z,73.72
2022-12-15T01:28:25.014Z,79.95
2022-12-15T01:30:53.189Z,74.30
2022-12-15T01:33:21.435Z,74.60
2022-12-15T01:35:57.072Z,75.30
2022-12-15T01:38:24.855Z,76.50
2022-12-15T01:40:55.595Z,82.75
2022-12-15T01:43:25.807Z,78.20
2022-12-15T01:45:58.507Z,75.65
2022-12-15T01:48:30.632Z,76.88
2022-12-15T01:51:18.678Z,84.05
2022-12-15T01:53:52.464Z,78.47
2022-12-15T01:56:22.714Z,88.07
2022-12-15T01:58:54.580Z,86.10
2022-12-15T02:01:22.309Z,84.65
2022-12-15T02:03:50.168Z,71.53
2022-12-15T02:06:21.584Z,74.20
2022-12-15T02:08:51.860Z,72.40
2022-12-15T02:11:40.964Z,71.97
2022-12-15T02:14:10.226Z,73.25
2022-12-15T02:16:52.535Z,76.78
2022-12-15T02:19:38.359Z,81.63
2022-12-15T02:22:21.188Z,73.57
2022-12-15T02:25:23.508Z,75.68
2022-12-15T02:28:00.150Z,85.80
2022-12-15T02:31:11.492Z,80.45
2022-12-15T02:33:45.771Z,82.25
2022-12-15T02:36:19.914Z,76.72
2022-12-15T02:38:47.546Z,72.60
2022-12-15T02:41:35.894Z,69.68
2022-12-15T02:44:09.251Z,70.88
2022-12-15T02:46:52.334Z,80.05
2022-12-15T02:49:29.646Z,77.20
2022-12-15T02:52:10.558Z,69.60
2022-12-15T02:54:53.546Z,66.35
2022-12-15T02:57:28.779Z,71.75
2022-12-15T03:00:01.612Z,63.90
2022-12-15T03:02:34.422Z,68.20
2022-12-15T03:05:02.433Z,73.55
2022-12-15T03:07:30.048Z,81.93
2022-12-15T03:10:00.865Z,85.07
2022-12-15T03:12:28.598Z,74.22
2022-12-15T03:14:56.328Z,83.22
2022-12-15T03:17:23.973Z,78.13
2022-12-15T03:19:53.075Z,81.82
2022-12-15T03:22:20.873Z,78.70
2022-12-15T03:24:48.855Z,82.00
2022-12-15T03:27:16.868Z,79.10
2022-12-15T03:29:44.559Z,76.60
2022-12-15T03:32:12.339Z,76.65
2022-12-15T03:34:41.934Z,83.80
2022-12-15T03:37:10.908Z,81.97
2022-12-15T03:39:38.636Z,84.22
2022-12-15T03:42:06.468Z,83.60
2022-12-15T03:44:34.729Z,79.90
2022-12-15T03:47:03.839Z,75.95
2022-12-15T03:49:31.681Z,78.60
2022-12-15T03:51:59.350Z,86.93
2022-12-15T03:54:28.702Z,86.30
2022-12-15T03:56:56.376Z,83.00
2022-12-15T03:59:24.023Z,87.78
2022-12-15T04:01:51.789Z,81.78
2022-12-15T04:04:19.512Z,78.97
2022-12-15T04:06:47.206Z,79.03
2022-12-15T04:09:14.830Z,72.30
2022-12-15T04:11:44.297Z,75.65
2022-12-15T04:14:12.030Z,67.00
2022-12-15T04:16:39.886Z,72.20
2022-12-15T04:19:25.322Z,73.97
2022-12-15T04:21:52.957Z,79.30
2022-12-15T04:24:38.347Z,76.05
2022-12-15T04:27:24.961Z,76.80
2022-12-15T04:30:10.195Z,80.25
2022-12-15T04:32:55.456Z,74.38
2022-12-15T04:35:40.779Z,70.13
2022-12-15T04:38:26.024Z,74.32
2022-12-15T04:41:11.453Z,75.13
2022-12-15T04:43:58.551Z,73.68
2022-12-15T04:46:43.785Z,72.65
2022-12-15T04:49:29.075Z,87.25
2022-12-15T04:52:14.330Z,88.88
2022-12-15T04:54:59.501Z,86.20
2022-12-15T04:57:44.814Z,75.88
2022-12-15T05:00:32.275Z,75.28
2022-12-15T05:03:23.136Z,84.68
2022-12-15T05:06:08.690Z,75.30
2022-12-15T05:08:53.781Z,78.90
2022-12-15T05:11:39.140Z,85.25
2022-12-15T05:14:24.563Z,81.97
2022-12-15T05:17:11.197Z,83.07
2022-12-15T05:19:56.694Z,79.28
2022-12-15T05:22:41.923Z,81.00
2022-12-15T05:25:28.605Z,80.70
2022-12-15T05:28:14.065Z,80.20
2022-12-15T05:30:59.398Z,81.22
2022-12-15T05:33:28.777Z,82.13
2022-12-15T05:35:57.852Z,74.38
2022-12-15T05:38:25.487Z,81.35
2022-12-15T05:40:53.190Z,80.35
2022-12-15T05:43:26.146Z,77.95
2022-12-15T05:45:54.287Z,72.43
2022-12-15T05:48:22.158Z,75.90
2022-12-15T05:50:51.566Z,89.45
2022-12-15T05:53:19.255Z,84.70
2022-12-15T05:55:46.911Z,79.07
2022-12-15T05:58:14.573Z,72.10
2022-12-15T06:00:42.201Z,75.13
2022-12-15T06:03:09.947Z,69.32
2022-12-15T06:05:38.412Z,73.38
2022-12-15T06:08:07.633Z,70.97
2022-12-15T06:10:35.348Z,78.63
2022-12-15T06:13:02.958Z,65.30
2022-12-15T06:15:30.633Z,75.35
2022-12-15T06:17:58.326Z,66.25
2022-12-15T06:20:26.069Z,66.47
2022-12-15T06:22:53.762Z,68.53
2022-12-15T06:25:22.758Z,74.65
2022-12-15T06:27:50.439Z,67.20
2022-12-15T06:30:19.159Z,69.13
2022-12-15T06:32:46.863Z,63.33
2022-12-15T06:35:17.698Z,62.55
2022-12-15T06:37:45.309Z,66.50
2022-12-15T06:40:13.057Z,64.55
2022-12-15T06:42:42.153Z,63.83
2022-12-15T06:45:10.726Z,63.22
2022-12-15T06:47:38.417Z,68.32
2022-12-15T06:50:07.828Z,77.53
2022-12-15T06:52:35.598Z,67.30
2022-12-15T06:55:03.224Z,63.95
2022-12-15T06:57:30.901Z,73.43
2022-12-15T07:00:00.101Z,65.80
2022-12-15T07:02:30.039Z,66.70
2022-12-15T07:04:57.950Z,68.00
2022-12-15T07:07:26.141Z,67.05
2022-12-15T07:09:53.745Z,69.03
2022-12-15T07:12:21.921Z,70.78
2022-12-15T07:14:53.428Z,69.32
2022-12-15T07:17:23.255Z,67.70
2022-12-15T07:19:50.970Z,66.15
2022-12-15T07:22:18.716Z,72.85
2022-12-15T07:24:46.502Z,71.05
2022-12-15T07:27:14.541Z,86.47
2022-12-15T07:29:42.229Z,76.90
2022-12-15T07:32:09.891Z,69.70
2022-12-15T07:34:39.097Z,80.68
2022-12-15T07:37:06.781Z,67.18
2022-12-15T07:39:34.550Z,67.60
2022-12-15T07:42:02.268Z,64.80
2022-12-15T07:44:30.046Z,68.13
2022-12-15T07:46:57.694Z,64.18
2022-12-15T07:49:25.460Z,72.78
2022-12-15T07:51:58.364Z,66.88
2022-12-15T07:54:26.040Z,72.50
2022-12-15T07:56:53.754Z,72.22
2022-12-15T07:59:21.382Z,86.35
2022-12-15T08:01:49.624Z,85.05
2022-12-15T08:04:17.597Z,74.05
2022-12-15T08:06:45.286Z,81.53
2022-12-15T08:09:14.540Z,77.82
2022-12-15T08:11:43.096Z,76.53
2022-12-15T08:14:17.021Z,79.85
2022-12-15T08:16:46.116Z,79.35
2022-12-15T08:19:15.752Z,79.50
2022-12-15T08:21:45.440Z,82.93
2022-12-15T08:24:15.645Z,78.30
2022-12-15T08:26:44.443Z,72.25
2022-12-15T08:29:49.547Z,72.57
2022-12-15T08:32:06.628Z,71.50
2022-12-15T08:34:34.486Z,78.93
2022-12-15T08:37:02.371Z,70.57
2022-12-15T08:39:31.477Z,70.13
2022-12-15T08:41:59.111Z,69.97
2022-12-15T08:44:26.831Z,68.20
2022-12-15T08:46:54.586Z,75.35
2022-12-15T08:49:22.666Z,70.30
2022-12-15T08:51:50.769Z,73.55
2022-12-15T08:54:20.614Z,73.20
2022-12-15T08:56:50.251Z,74.28
2022-12-15T08:59:19.088Z,72.55
2022-12-15T09:01:47.065Z,64.80
2022-12-15T09:04:15.570Z,76.00
2022-12-15T09:06:43.506Z,73.82
2022-12-15T09:09:14.085Z,85.68
2022-12-15T09:11:41.812Z,81.80
2022-12-15T09:14:10.871Z,79.07
2022-12-15T09:16:38.700Z,81.57
2022-12-15T09:19:07.188Z,70.82
2022-12-15T09:21:35.037Z,70.80
2022-12-15T09:24:03.903Z,79.53
2022-12-15T09:26:33.990Z,81.60
2022-12-15T09:29:02.868Z,82.63
2022-12-15T09:31:33.463Z,87.40
2022-12-15T09:34:02.306Z,74.60
2022-12-15T09:36:32.648Z,75.13
2022-12-15T09:39:02.004Z,75.68
2022-12-15T09:41:32.006Z,65.10
2022-12-15T09:44:03.461Z,66.28
2022-12-15T09:46:49.821Z,71.13
2022-12-15T09:49:29.065Z,76.25
2022-12-15T09:52:07.172Z,70.78
2022-12-15T09:54:38.914Z,67.22
2022-12-15T09:57:14.215Z,71.85
2022-12-15T09:59:53.554Z,69.05
2022-12-15T10:02:40.985Z,79.57
2022-12-15T10:05:17.901Z,77.32
2022-12-15T10:07:50.510Z,72.65
2022-12-15T10:10:25.552Z,75.38
2022-12-15T10:13:02.308Z,74.57
2022-12-15T10:15:36.110Z,65.47
2022-12-15T10:18:11.754Z,63.88
2022-12-15T10:20:39.629Z,60.25
2022-12-15T10:23:13.354Z,66.63
2022-12-15T10:25:46.792Z,61.92
2022-12-15T10:28:41.761Z,71.05
2022-12-15T10:31:19.894Z,71.78
2022-12-15T10:33:56.699Z,68.25
2022-12-15T10:36:24.589Z,60.38
2022-12-15T10:38:52.289Z,64.78
2022-12-15T10:41:21.855Z,61.10
2022-12-15T10:43:51.327Z,56.78
2022-12-15T10:46:20.562Z,66.00
2022-12-15T10:48:51.063Z,67.35
2022-12-15T10:51:22.408Z,70.25
2022-12-15T10:53:52.668Z,65.20
2022-12-15T10:56:32.456Z,69.55
2022-12-15T10:59:03.515Z,71.40
2022-12-15T11:01:33.630Z,74.80
2022-12-15T11:04:02.874Z,70.50
2022-12-15T11:06:33.519Z,66.95
2022-12-15T11:09:10.216Z,68.72
2022-12-15T11:12:06.007Z,66.50
2022-12-15T11:14:44.304Z,73.35
2022-12-15T11:17:16.872Z,71.57
2022-12-15T11:19:56.753Z,63.13
2022-12-15T11:22:38.643Z,64.80
2022-12-15T11:25:16.646Z,63.38
2022-12-15T11:27:46.159Z,59.90
2022-12-15T11:30:16.677Z,67.40
2022-12-15T11:32:47.156Z,64.30
2022-12-15T11:35:21.590Z,72.30
2022-12-15T11:37:52.352Z,64.38
2022-12-15T11:40:34.473Z,62.88
2022-12-15T11:43:15.560Z,67.68
2022-12-15T11:45:52.594Z,69.32
2022-12-15T11:48:23.001Z,66.18
2022-12-15T11:51:00.044Z,68.40
2022-12-15T11:53:56.515Z,64.57
2022-12-15T11:56:32.292Z,69.15
2022-12-15T11:59:32.876Z,69.05
2022-12-15T12:02:18.358Z,69.95
2022-12-15T12:05:00.605Z,65.25
2022-12-15T12:07:42.564Z,63.58
2022-12-15T12:10:24.986Z,70.05
2022-12-15T12:13:01.391Z,64.90
2022-12-15T12:15:36.714Z,68.93
2022-12-15T12:18:11.602Z,60.85
2022-12-15T12:20:44.503Z,70.45
2022-12-15T12:23:21.014Z,68.72
2022-12-15T12:26:03.238Z,65.72
2022-12-15T12:28:42.205Z,69.60
2022-12-15T12:31:19.494Z,61.92
2022-12-15T12:33:50.267Z,65.50
2022-12-15T12:36:17.952Z,60.13
2022-12-15T12:41:42.932Z,63.83
2022-12-15T12:44:16.386Z,61.97
2022-12-15T12:46:48.940Z,57.97
2022-12-15T12:49:28.490Z,65.07
2022-12-15T12:51:59.587Z,60.95
2022-12-15T12:54:47.966Z,70.05
2022-12-15T12:57:40.770Z,62.30
2022-12-15T13:00:18.665Z,63.70
2022-12-15T13:03:18.875Z,60.55
2022-12-15T13:05:52.019Z,61.17
2022-12-15T13:08:45.692Z,59.83
2022-12-15T13:11:55.772Z,62.47
2022-12-15T13:14:31.857Z,62.90
2022-12-15T13:20:18.893Z,64.50
2022-12-15T13:22:46.746Z,57.67
2022-12-15T13:25:36.735Z,65.78
2022-12-15T13:28:19.128Z,63.67
2022-12-15T13:31:35.903Z,69.60
2022-12-15T13:34:24.220Z,63.33
2022-12-15T13:37:00.133Z,67.88
2022-12-15T13:39:58.852Z,67.68
2022-12-15T13:42:40.256Z,64.95
2022-12-15T13:45:48.920Z,63.55
2022-12-15T13:48:38.462Z,59.05
2022-12-15T13:51:31.196Z,56.55
2022-12-15T13:54:03.264Z,60.05
2022-12-15T13:56:46.961Z,58.17
2022-12-15T13:59:25.539Z,58.08
2022-12-15T14:01:54.777Z,62.15
2022-12-15T14:04:23.238Z,60.08
2022-12-15T14:06:55.455Z,52.95
2022-12-15T14:09:28.741Z,56.72
2022-12-15T14:11:56.942Z,56.47
2022-12-15T14:14:26.689Z,53.22
2022-12-15T14:19:51.167Z,54.67
2022-12-15T14:22:29.953Z,57.90
2022-12-15T14:25:03.554Z,62.72
2022-12-15T14:27:33.261Z,51.83
2022-12-15T14:30:20.313Z,56.50
2022-12-15T14:32:52.573Z,62.33
2022-12-15T14:35:26.548Z,60.40
2022-12-15T14:37:58.145Z,67.05
2022-12-15T14:40:29.157Z,60.50
2022-12-15T14:42:57.315Z,64.47
2022-12-15T14:45:28.243Z,67.00
2022-12-15T14:48:31.013Z,61.67
2022-12-15T14:50:49.359Z,54.95
2022-12-15T14:53:22.215Z,57.30
2022-12-15T14:55:50.422Z,74.80
2022-12-15T14:58:33.873Z,64.95
2022-12-15T15:01:03.079Z,54.80
2022-12-15T15:03:07.442Z,65.68
2022-12-15T15:03:11.973Z,64.00
2022-12-15T15:03:16.532Z,53.30
2022-12-15T15:03:38.453Z,59.28
2022-12-15T15:06:16.734Z,60.63
2022-12-15T15:08:48.782Z,60.97
2022-12-15T15:11:29.387Z,58.78
2022-12-15T15:14:01.174Z,71.00
2022-12-15T15:16:29.482Z,66.38
2022-12-15T15:18:58.271Z,59.92
2022-12-15T15:21:28.163Z,60.10
2022-12-15T15:24:02.414Z,61.63
2022-12-15T15:26:31.702Z,64.32
2022-12-15T15:28:59.693Z,62.28
2022-12-15T15:31:35.257Z,57.35
2022-12-15T15:34:08.156Z,60.65
2022-12-15T15:36:38.380Z,65.00
2022-12-15T15:39:13.025Z,62.13
2022-12-15T15:41:40.680Z,56.30
2022-12-15T15:44:13.929Z,65.78
2022-12-15T15:46:47.577Z,69.07
2022-12-15T15:49:17.996Z,60.65
2022-12-15T15:51:46.235Z,66.05
2022-12-15T15:54:18.975Z,69.32
2022-12-15T15:56:46.678Z,65.30
2022-12-15T15:59:16.619Z,57.58
2022-12-15T16:01:45.048Z,58.55
2022-12-15T16:04:13.013Z,56.33
2022-12-15T16:06:47.025Z,54.42
2022-12-15T16:09:17.869Z,60.63
2022-12-15T16:11:47.640Z,55.80
2022-12-15T16:14:17.523Z,50.58
2022-12-15T16:16:46.059Z,58.67
2022-12-15T16:19:14.293Z,56.92
2022-12-15T16:21:43.872Z,57.20
2022-12-15T16:24:18.098Z,57.55
2022-12-15T16:26:49.574Z,55.63
2022-12-15T16:29:18.795Z,56.00
2022-12-15T16:31:46.813Z,53.47
2022-12-15T16:34:16.523Z,57.15
2022-12-15T16:36:45.216Z,54.38
2022-12-15T16:39:25.842Z,61.25
2022-12-15T16:41:55.369Z,56.90
2022-12-15T16:44:23.444Z,54.40
2022-12-15T16:46:51.441Z,57.20
2022-12-15T16:49:19.358Z,53.58
2022-12-15T16:51:49.166Z,58.55
2022-12-15T16:54:21.899Z,50.28
2022-12-15T16:56:49.847Z,47.25
2022-12-15T16:59:35.255Z,53.97
2022-12-15T17:02:17.802Z,55.97
2022-12-15T17:04:45.574Z,42.95
2022-12-15T17:07:20.052Z,45.40
2022-12-15T17:09:50.857Z,47.78
2022-12-15T17:12:19.805Z,50.05
2022-12-15T17:14:47.697Z,47.10
2022-12-15T17:17:16.704Z,51.45
2022-12-15T17:20:11.852Z,52.65
2022-12-15T17:22:33.283Z,48.30
2022-12-15T17:25:02.486Z,50.65
2022-12-15T17:27:31.571Z,52.42
2022-12-15T17:30:01.222Z,47.03
2022-12-15T17:32:28.909Z,50.30
2022-12-15T17:34:56.774Z,50.10
2022-12-15T17:37:26.170Z,43.83
2022-12-15T17:39:56.888Z,50.30
2022-12-15T17:42:26.117Z,51.33
2022-12-15T17:44:54.036Z,54.22
2022-12-15T17:47:24.181Z,58.50
2022-12-15T17:49:51.944Z,49.90
2022-12-15T17:52:27.244Z,48.70
2022-12-15T17:54:56.271Z,52.08
2022-12-15T17:57:24.181Z,50.65
2022-12-15T17:59:53.266Z,45.90
2022-12-15T18:02:20.970Z,49.83
2022-12-15T18:04:48.762Z,47.53
2022-12-15T18:07:19.158Z,48.63
2022-12-15T18:09:47.752Z,43.53
2022-12-15T18:12:19.654Z,41.95
2022-12-15T18:14:47.849Z,42.20
2022-12-15T18:17:16.900Z,46.65
2022-12-15T18:19:45.097Z,46.20
2022-12-15T18:22:22.268Z,50.85
2022-12-15T18:24:52.114Z,47.13
2022-12-15T18:27:23.327Z,46.88
2022-12-15T18:29:51.213Z,50.92
2022-12-15T18:32:22.054Z,44.85
2022-12-15T18:34:50.502Z,48.22
2022-12-15T18:37:19.717Z,51.67
2022-12-15T18:39:48.384Z,47.03
2022-12-15T18:42:17.638Z,44.00
2022-12-15T18:44:47.622Z,52.13
2022-12-15T18:47:17.322Z,53.88
2022-12-15T18:49:46.499Z,41.58
2022-12-15T18:52:18.235Z,49.45
2022-12-15T18:54:47.028Z,51.33
2022-12-15T18:57:30.833Z,49.10
2022-12-15T19:00:00.847Z,47.65
2022-12-15T19:02:28.778Z,52.90
2022-12-15T19:04:57.992Z,47.17
2022-12-15T19:07:25.769Z,49.70
2022-12-15T19:09:54.060Z,45.10
2022-12-15T19:12:21.826Z,51.60
2022-12-15T19:14:51.356Z,53.25
2022-12-15T19:17:38.933Z,49.38
2022-12-15T19:20:35.217Z,48.05
2022-12-15T19:23:03.094Z,49.97
2022-12-15T19:25:31.756Z,54.67
2022-12-15T19:28:00.771Z,48.88
2022-12-15T19:30:30.979Z,52.38
2022-12-15T19:32:58.727Z,47.65
2022-12-15T19:35:29.208Z,49.80
2022-12-15T19:37:59.978Z,49.03
2022-12-15T19:40:30.346Z,55.72
2022-12-15T19:42:59.116Z,52.30
2022-12-15T19:45:29.218Z,50.33
2022-12-15T19:47:57.255Z,47.85
2022-12-15T19:50:29.606Z,54.45
2022-12-15T19:53:00.155Z,48.75
2022-12-15T19:55:30.597Z,54.05
2022-12-15T19:57:58.697Z,49.20
2022-12-15T20:00:27.358Z,50.67
2022-12-15T20:02:56.721Z,45.80
2022-12-15T20:05:26.079Z,50.05
2022-12-15T20:07:55.764Z,47.13
2022-12-15T20:10:31.731Z,49.17
2022-12-15T20:13:00.817Z,47.72
2022-12-15T20:15:28.969Z,52.80
2022-12-15T20:17:57.411Z,51.58
2022-12-15T20:20:27.827Z,47.33
2022-12-15T20:23:00.023Z,59.47
2022-12-15T20:25:30.710Z,52.90
2022-12-15T20:28:00.300Z,52.20
2022-12-15T20:30:32.449Z,47.13
2022-12-15T20:33:00.787Z,53.45
2022-12-15T20:35:31.087Z,56.97
2022-12-15T20:38:00.663Z,54.60
2022-12-15T20:40:30.163Z,51.22
2022-12-15T20:42:58.501Z,53.17
2022-12-15T20:45:28.154Z,56.08
2022-12-15T20:47:57.096Z,54.60
2022-12-15T20:50:28.787Z,52.25
2022-12-15T20:52:56.532Z,58.75
2022-12-15T20:55:25.651Z,54.17
2022-12-15T20:57:53.624Z,55.25
2022-12-15T21:00:22.111Z,59.28
2022-12-15T21:02:52.018Z,61.85
2022-12-15T21:05:25.374Z,51.45
2022-12-15T21:07:53.770Z,49.40
2022-12-15T21:10:21.892Z,51.38
2022-12-15T21:12:51.641Z,56.97
2022-12-15T21:15:21.940Z,54.83
2022-12-15T21:18:03.857Z,53.28
2022-12-15T21:20:41.067Z,65.00
2022-12-15T21:23:17.991Z,58.17
2022-12-15T21:25:45.671Z,53.28
2022-12-15T21:28:15.255Z,55.17
2022-12-15T21:30:43.188Z,54.05
2022-12-15T21:33:11.242Z,53.08
2022-12-15T21:35:40.848Z,56.50
2022-12-15T21:38:18.577Z,57.25
2022-12-15T21:40:46.272Z,56.85
2022-12-15T21:43:15.413Z,53.50
2022-12-15T21:45:43.184Z,51.35
2022-12-15T21:48:30.876Z,55.17
2022-12-15T21:50:58.787Z,57.15
2022-12-15T21:53:26.480Z,51.13
2022-12-15T21:55:57.313Z,56.17
2022-12-15T21:58:27.418Z,49.85
2022-12-15T22:00:55.423Z,56.67
2022-12-15T22:03:23.292Z,60.70
2022-12-15T22:05:51.098Z,58.58
2022-12-15T22:08:21.960Z,62.53
2022-12-15T22:10:52.937Z,65.35
2022-12-15T22:13:24.173Z,58.03
2022-12-15T22:15:53.216Z,62.13
2022-12-15T22:18:22.609Z,55.00
2022-12-15T22:20:52.420Z,60.33
2022-12-15T22:23:21.322Z,59.47
2022-12-15T22:25:52.757Z,60.75
2022-12-15T22:28:24.443Z,60.47
2022-12-15T22:30:55.083Z,60.22
2022-12-15T22:33:24.833Z,61.33
2022-12-15T22:35:54.884Z,55.83
2022-12-15T22:38:24.260Z,64.00
2022-12-15T22:40:55.538Z,72.25
2022-12-15T22:43:27.265Z,72.90
2022-12-15T22:45:57.182Z,71.95
2022-12-15T22:48:34.102Z,69.38
2022-12-15T22:51:02.720Z,66.75
2022-12-15T22:53:32.901Z,76.40
2022-12-15T22:56:02.636Z,73.88
2022-12-15T22:58:35.851Z,70.40
2022-12-15T23:01:06.538Z,74.65
2022-12-15T23:03:35.008Z,69.03
2022-12-15T23:06:04.483Z,69.55
2022-12-15T23:08:32.801Z,75.50
2022-12-15T23:11:18.462Z,70.00
2022-12-15T23:13:46.531Z,76.13
2022-12-15T23:16:21.500Z,75.13
2022-12-15T23:18:51.753Z,79.95
2022-12-15T23:21:20.192Z,83.53
2022-12-15T23:23:48.275Z,63.95
2022-12-15T23:26:17.169Z,70.32
2022-12-15T23:28:44.852Z,66.10
2022-12-15T23:31:12.935Z,74.97
2022-12-15T23:33:42.362Z,65.95
2022-12-15T23:36:10.723Z,69.55
2022-12-15T23:38:38.636Z,80.90
2022-12-15T23:41:06.899Z,78.05
2022-12-15T23:43:36.107Z,79.45
2022-12-15T23:46:07.336Z,72.93
2022-12-15T23:48:38.525Z,74.55
2022-12-15T23:51:10.373Z,74.00
2022-12-15T23:53:38.755Z,73.85
2022-12-15T23:56:08.759Z,78.82
2022-12-15T23:58:36.815Z,69.28
